sensor_id;sensor_type;location;lat;lon;timestamp;temperature;humidity
39503;DHT22;26970;49.900;10.774;2022-12-29T00:01:02;5.80;99.90
39503;DHT22;26970;49.900;10.774;2022-12-29T00:03:28;5.70;99.90
39503;DHT22;26970;49.900;10.774;2022-12-29T00:05:55;5.70;99.90
39503;DHT22;26970;49.900;10.774;2022-12-29T00:08:21;5.70;99.90
39503;DHT22;26970;49.900;10.774;2022-12-29T00:11:11;5.70;99.90
39503;DHT22;26970;49.900;10.774;2022-12-29T00:13:37;5.80;99.90
39503;DHT22;26970;49.900;10.774;2022-12-29T00:16:22;5.80;99.90
39503;DHT22;26970;49.900;10.774;2022-12-29T00:18:47;5.80;99.90
39503;DHT22;26970;49.900;10.774;2022-12-29T00:21:15;5.80;99.90
39503;DHT22;26970;49.900;10.774;2022-12-29T00:24:00;5.80;99.90
39503;DHT22;26970;49.900;10.774;2022-12-29T00:26:45;5.90;99.90
39503;DHT22;26970;49.900;10.774;2022-12-29T00:29:31;5.90;99.90
39503;DHT22;26970;49.900;10.774;2022-12-29T00:32:15;6.00;99.90
39503;DHT22;26970;49.900;10.774;2022-12-29T00:34:59;6.00;99.90
39503;DHT22;26970;49.900;10.774;2022-12-29T00:37:36;6.00;99.90
39503;DHT22;26970;49.900;10.774;2022-12-29T00:40:21;6.00;99.90
39503;DHT22;26970;49.900;10.774;2022-12-29T00:43:05;6.00;99.90
39503;DHT22;26970;49.900;10.774;2022-12-29T00:45:49;6.00;99.90
39503;DHT22;26970;49.900;10.774;2022-12-29T00:48:14;5.70;99.90
39503;DHT22;26970;49.900;10.774;2022-12-29T00:50:40;6.00;99.90
39503;DHT22;26970;49.900;10.774;2022-12-29T00:53:05;6.10;99.90
39503;DHT22;26970;49.900;10.774;2022-12-29T00:55:31;6.10;99.90
39503;DHT22;26970;49.900;10.774;2022-12-29T00:57:57;6.10;99.90
39503;DHT22;26970;49.900;10.774;2022-12-29T01:00:23;6.10;99.90
39503;DHT22;26970;49.900;10.774;2022-12-29T01:02:49;6.10;99.90
39503;DHT22;26970;49.900;10.774;2022-12-29T01:05:14;6.20;99.90
39503;DHT22;26970;49.900;10.774;2022-12-29T01:07:40;6.20;99.90
39503;DHT22;26970;49.900;10.774;2022-12-29T01:10:06;7.30;99.90
39503;DHT22;26970;49.900;10.774;2022-12-29T01:12:37;6.30;99.90
39503;DHT22;26970;49.900;10.774;2022-12-29T01:15:11;6.30;99.90
39503;DHT22;26970;49.900;10.774;2022-12-29T01:17:37;6.30;99.90
39503;DHT22;26970;49.900;10.774;2022-12-29T01:20:03;6.40;99.90
39503;DHT22;26970;49.900;10.774;2022-12-29T01:22:29;6.40;99.90
39503;DHT22;26970;49.900;10.774;2022-12-29T01:24:54;6.40;99.90
39503;DHT22;26970;49.900;10.774;2022-12-29T01:27:20;6.40;99.90
39503;DHT22;26970;49.900;10.774;2022-12-29T01:29:45;6.40;99.90
39503;DHT22;26970;49.900;10.774;2022-12-29T01:32:11;6.50;99.90
39503;DHT22;26970;49.900;10.774;2022-12-29T01:34:37;6.50;99.90
39503;DHT22;26970;49.900;10.774;2022-12-29T01:37:02;6.50;99.90
39503;DHT22;26970;49.900;10.774;2022-12-29T01:39:28;6.50;99.90
39503;DHT22;26970;49.900;10.774;2022-12-29T01:41:54;6.60;99.90
39503;DHT22;26970;49.900;10.774;2022-12-29T01:44:46;6.60;99.90
39503;DHT22;26970;49.900;10.774;2022-12-29T01:47:17;6.60;99.90
39503;DHT22;26970;49.900;10.774;2022-12-29T01:49:44;6.70;99.90
39503;DHT22;26970;49.900;10.774;2022-12-29T01:52:10;6.70;99.90
39503;DHT22;26970;49.900;10.774;2022-12-29T01:54:43;6.60;99.90
39503;DHT22;26970;49.900;10.774;2022-12-29T01:57:15;6.60;99.90
39503;DHT22;26970;49.900;10.774;2022-12-29T01:59:47;6.70;99.90
39503;DHT22;26970;49.900;10.774;2022-12-29T02:02:15;6.70;99.90
39503;DHT22;26970;49.900;10.774;2022-12-29T02:04:43;6.70;99.90
39503;DHT22;26970;49.900;10.774;2022-12-29T02:07:18;6.70;99.90
39503;DHT22;26970;49.900;10.774;2022-12-29T02:09:47;6.80;99.90
39503;DHT22;26970;49.900;10.774;2022-12-29T02:12:14;6.80;99.90
39503;DHT22;26970;49.900;10.774;2022-12-29T02:14:40;6.80;99.90
39503;DHT22;26970;49.900;10.774;2022-12-29T02:33:00;6.90;99.90
39503;DHT22;26970;49.900;10.774;2022-12-29T02:35:36;6.90;99.90
39503;DHT22;26970;49.900;10.774;2022-12-29T02:38:27;6.90;99.90
39503;DHT22;26970;49.900;10.774;2022-12-29T02:41:07;6.90;99.90
39503;DHT22;26970;49.900;10.774;2022-12-29T02:43:48;6.90;99.90
39503;DHT22;26970;49.900;10.774;2022-12-29T02:46:19;6.90;99.90
39503;DHT22;26970;49.900;10.774;2022-12-29T02:49:09;6.90;99.90
39503;DHT22;26970;49.900;10.774;2022-12-29T02:52:01;6.90;99.90
39503;DHT22;26970;49.900;10.774;2022-12-29T02:54:27;7.00;99.90
39503;DHT22;26970;49.900;10.774;2022-12-29T02:57:28;7.00;99.90
39503;DHT22;26970;49.900;10.774;2022-12-29T03:00:07;7.00;99.90
39503;DHT22;26970;49.900;10.774;2022-12-29T03:08:30;7.10;99.90
39503;DHT22;26970;49.900;10.774;2022-12-29T03:11:05;7.00;99.90
39503;DHT22;26970;49.900;10.774;2022-12-29T03:13:56;7.00;99.90
39503;DHT22;26970;49.900;10.774;2022-12-29T03:16:57;7.00;99.90
39503;DHT22;26970;49.900;10.774;2022-12-29T03:19:38;7.00;99.90
39503;DHT22;26970;49.900;10.774;2022-12-29T03:22:08;7.00;99.90
39503;DHT22;26970;49.900;10.774;2022-12-29T03:25:03;7.00;99.90
39503;DHT22;26970;49.900;10.774;2022-12-29T03:27:47;6.90;99.90
39503;DHT22;26970;49.900;10.774;2022-12-29T03:30:14;7.00;99.90
39503;DHT22;26970;49.900;10.774;2022-12-29T03:32:47;7.00;99.90
39503;DHT22;26970;49.900;10.774;2022-12-29T03:35:16;7.00;99.90
39503;DHT22;26970;49.900;10.774;2022-12-29T03:37:53;7.00;99.90
39503;DHT22;26970;49.900;10.774;2022-12-29T03:40:22;7.00;99.90
39503;DHT22;26970;49.900;10.774;2022-12-29T03:42:49;7.20;99.90
39503;DHT22;26970;49.900;10.774;2022-12-29T03:45:15;7.30;99.90
39503;DHT22;26970;49.900;10.774;2022-12-29T03:47:41;7.30;99.90
39503;DHT22;26970;49.900;10.774;2022-12-29T03:50:07;7.50;99.90
39503;DHT22;26970;49.900;10.774;2022-12-29T03:52:34;7.50;99.90
39503;DHT22;26970;49.900;10.774;2022-12-29T03:54:59;7.60;99.90
39503;DHT22;26970;49.900;10.774;2022-12-29T03:57:25;7.60;99.90
39503;DHT22;26970;49.900;10.774;2022-12-29T03:59:50;7.80;99.90
39503;DHT22;26970;49.900;10.774;2022-12-29T04:02:16;7.90;99.90
39503;DHT22;26970;49.900;10.774;2022-12-29T04:04:42;7.90;99.90
39503;DHT22;26970;49.900;10.774;2022-12-29T04:07:07;8.00;99.90
39503;DHT22;26970;49.900;10.774;2022-12-29T04:09:33;8.00;99.90
39503;DHT22;26970;49.900;10.774;2022-12-29T04:11:58;8.10;99.90
39503;DHT22;26970;49.900;10.774;2022-12-29T04:14:24;8.10;99.90
39503;DHT22;26970;49.900;10.774;2022-12-29T04:16:49;8.10;99.90
39503;DHT22;26970;49.900;10.774;2022-12-29T04:19:15;8.10;99.90
39503;DHT22;26970;49.900;10.774;2022-12-29T04:21:41;8.10;99.90
39503;DHT22;26970;49.900;10.774;2022-12-29T04:24:06;8.10;99.90
39503;DHT22;26970;49.900;10.774;2022-12-29T04:26:32;8.10;99.90
39503;DHT22;26970;49.900;10.774;2022-12-29T04:28:58;8.10;99.90
39503;DHT22;26970;49.900;10.774;2022-12-29T04:31:24;8.10;99.90
39503;DHT22;26970;49.900;10.774;2022-12-29T04:33:49;8.10;99.90
39503;DHT22;26970;49.900;10.774;2022-12-29T04:36:15;8.10;99.90
39503;DHT22;26970;49.900;10.774;2022-12-29T04:38:40;8.20;99.90
39503;DHT22;26970;49.900;10.774;2022-12-29T04:41:06;8.20;99.90
39503;DHT22;26970;49.900;10.774;2022-12-29T04:43:32;8.10;99.90
39503;DHT22;26970;49.900;10.774;2022-12-29T04:45:57;8.10;99.90
39503;DHT22;26970;49.900;10.774;2022-12-29T04:48:23;8.10;99.90
39503;DHT22;26970;49.900;10.774;2022-12-29T04:50:49;8.20;99.90
39503;DHT22;26970;49.900;10.774;2022-12-29T04:53:15;8.20;99.90
39503;DHT22;26970;49.900;10.774;2022-12-29T04:55:41;8.20;99.90
39503;DHT22;26970;49.900;10.774;2022-12-29T04:58:07;8.20;99.90
39503;DHT22;26970;49.900;10.774;2022-12-29T05:00:33;8.30;99.90
39503;DHT22;26970;49.900;10.774;2022-12-29T05:02:58;8.30;99.90
39503;DHT22;26970;49.900;10.774;2022-12-29T05:05:24;8.30;99.90
39503;DHT22;26970;49.900;10.774;2022-12-29T05:07:50;8.40;99.90
39503;DHT22;26970;49.900;10.774;2022-12-29T05:10:15;8.40;99.90
39503;DHT22;26970;49.900;10.774;2022-12-29T05:12:41;8.40;99.90
39503;DHT22;26970;49.900;10.774;2022-12-29T05:15:08;8.40;99.90
39503;DHT22;26970;49.900;10.774;2022-12-29T05:17:34;8.40;99.90
39503;DHT22;26970;49.900;10.774;2022-12-29T05:19:59;8.40;99.90
39503;DHT22;26970;49.900;10.774;2022-12-29T05:22:25;8.40;99.90
39503;DHT22;26970;49.900;10.774;2022-12-29T05:24:51;8.50;99.90
39503;DHT22;26970;49.900;10.774;2022-12-29T05:27:16;8.60;99.90
39503;DHT22;26970;49.900;10.774;2022-12-29T05:29:42;8.50;99.90
39503;DHT22;26970;49.900;10.774;2022-12-29T05:32:07;8.20;99.90
39503;DHT22;26970;49.900;10.774;2022-12-29T05:34:33;8.10;99.90
39503;DHT22;26970;49.900;10.774;2022-12-29T05:36:59;7.80;99.90
39503;DHT22;26970;49.900;10.774;2022-12-29T05:39:24;7.70;99.90
39503;DHT22;26970;49.900;10.774;2022-12-29T05:41:50;7.60;99.90
39503;DHT22;26970;49.900;10.774;2022-12-29T05:44:15;7.50;99.90
39503;DHT22;26970;49.900;10.774;2022-12-29T05:46:41;7.40;99.90
39503;DHT22;26970;49.900;10.774;2022-12-29T05:49:07;7.30;99.90
39503;DHT22;26970;49.900;10.774;2022-12-29T05:51:32;7.30;99.90
39503;DHT22;26970;49.900;10.774;2022-12-29T05:53:58;7.20;99.90
39503;DHT22;26970;49.900;10.774;2022-12-29T05:56:23;7.10;99.90
39503;DHT22;26970;49.900;10.774;2022-12-29T05:58:49;7.80;99.90
39503;DHT22;26970;49.900;10.774;2022-12-29T06:01:15;7.20;99.90
39503;DHT22;26970;49.900;10.774;2022-12-29T06:03:40;7.10;99.90
39503;DHT22;26970;49.900;10.774;2022-12-29T06:06:06;7.10;99.90
39503;DHT22;26970;49.900;10.774;2022-12-29T06:08:32;7.10;99.90
39503;DHT22;26970;49.900;10.774;2022-12-29T06:10:57;7.10;99.90
39503;DHT22;26970;49.900;10.774;2022-12-29T06:13:23;7.10;99.90
39503;DHT22;26970;49.900;10.774;2022-12-29T06:15:49;7.10;99.90
39503;DHT22;26970;49.900;10.774;2022-12-29T06:18:15;7.10;99.90
39503;DHT22;26970;49.900;10.774;2022-12-29T06:20:41;7.00;99.90
39503;DHT22;26970;49.900;10.774;2022-12-29T06:23:06;7.00;99.90
39503;DHT22;26970;49.900;10.774;2022-12-29T06:25:32;7.10;99.90
39503;DHT22;26970;49.900;10.774;2022-12-29T06:27:59;7.10;99.90
39503;DHT22;26970;49.900;10.774;2022-12-29T06:30:25;7.10;99.90
39503;DHT22;26970;49.900;10.774;2022-12-29T06:32:50;7.10;99.90
39503;DHT22;26970;49.900;10.774;2022-12-29T06:35:17;7.10;99.90
39503;DHT22;26970;49.900;10.774;2022-12-29T06:37:42;7.10;99.90
39503;DHT22;26970;49.900;10.774;2022-12-29T06:40:09;7.10;99.90
39503;DHT22;26970;49.900;10.774;2022-12-29T06:42:34;7.10;99.90
39503;DHT22;26970;49.900;10.774;2022-12-29T06:45:00;7.10;99.90
39503;DHT22;26970;49.900;10.774;2022-12-29T06:47:26;7.10;99.90
39503;DHT22;26970;49.900;10.774;2022-12-29T06:49:51;7.10;99.90
39503;DHT22;26970;49.900;10.774;2022-12-29T06:52:17;7.10;99.90
39503;DHT22;26970;49.900;10.774;2022-12-29T06:54:42;7.10;99.90
39503;DHT22;26970;49.900;10.774;2022-12-29T06:57:08;7.10;99.90
39503;DHT22;26970;49.900;10.774;2022-12-29T06:59:34;7.00;99.90
39503;DHT22;26970;49.900;10.774;2022-12-29T07:01:59;7.00;99.90
39503;DHT22;26970;49.900;10.774;2022-12-29T07:04:27;7.00;99.90
39503;DHT22;26970;49.900;10.774;2022-12-29T07:06:53;6.90;99.90
39503;DHT22;26970;49.900;10.774;2022-12-29T07:09:19;7.00;99.90
39503;DHT22;26970;49.900;10.774;2022-12-29T07:11:44;7.00;99.90
39503;DHT22;26970;49.900;10.774;2022-12-29T07:14:11;7.00;99.90
39503;DHT22;26970;49.900;10.774;2022-12-29T07:16:36;7.10;99.90
39503;DHT22;26970;49.900;10.774;2022-12-29T07:19:02;7.00;99.90
39503;DHT22;26970;49.900;10.774;2022-12-29T07:21:28;7.00;99.90
39503;DHT22;26970;49.900;10.774;2022-12-29T07:23:54;7.00;99.90
39503;DHT22;26970;49.900;10.774;2022-12-29T07:26:20;7.00;99.90
39503;DHT22;26970;49.900;10.774;2022-12-29T07:28:45;7.00;99.90
39503;DHT22;26970;49.900;10.774;2022-12-29T07:31:20;7.00;99.90
39503;DHT22;26970;49.900;10.774;2022-12-29T07:33:46;7.00;99.90
39503;DHT22;26970;49.900;10.774;2022-12-29T07:36:13;7.00;99.90
39503;DHT22;26970;49.900;10.774;2022-12-29T07:38:40;7.00;99.90
39503;DHT22;26970;49.900;10.774;2022-12-29T07:41:06;7.10;99.90
39503;DHT22;26970;49.900;10.774;2022-12-29T07:43:31;7.10;99.90
39503;DHT22;26970;49.900;10.774;2022-12-29T07:45:57;7.10;99.90
39503;DHT22;26970;49.900;10.774;2022-12-29T07:48:22;7.00;99.90
39503;DHT22;26970;49.900;10.774;2022-12-29T07:50:48;7.00;99.90
39503;DHT22;26970;49.900;10.774;2022-12-29T07:53:14;6.90;99.90
39503;DHT22;26970;49.900;10.774;2022-12-29T07:55:40;6.90;99.90
39503;DHT22;26970;49.900;10.774;2022-12-29T07:58:05;6.90;99.90
39503;DHT22;26970;49.900;10.774;2022-12-29T08:00:31;6.90;99.90
39503;DHT22;26970;49.900;10.774;2022-12-29T08:02:59;6.90;99.90
39503;DHT22;26970;49.900;10.774;2022-12-29T08:05:25;6.90;99.90
39503;DHT22;26970;49.900;10.774;2022-12-29T08:07:50;7.00;99.90
39503;DHT22;26970;49.900;10.774;2022-12-29T08:10:16;7.00;99.90
39503;DHT22;26970;49.900;10.774;2022-12-29T08:12:42;7.00;99.90
39503;DHT22;26970;49.900;10.774;2022-12-29T08:15:09;7.00;99.90
39503;DHT22;26970;49.900;10.774;2022-12-29T08:17:35;7.00;99.90
39503;DHT22;26970;49.900;10.774;2022-12-29T08:20:01;7.00;99.90
39503;DHT22;26970;49.900;10.774;2022-12-29T08:22:27;7.00;99.90
39503;DHT22;26970;49.900;10.774;2022-12-29T08:24:53;7.00;99.90
39503;DHT22;26970;49.900;10.774;2022-12-29T08:27:19;7.00;99.90
39503;DHT22;26970;49.900;10.774;2022-12-29T08:29:45;7.10;99.90
39503;DHT22;26970;49.900;10.774;2022-12-29T08:32:11;7.10;99.90
39503;DHT22;26970;49.900;10.774;2022-12-29T08:34:36;7.00;99.90
39503;DHT22;26970;49.900;10.774;2022-12-29T08:37:02;7.00;99.90
39503;DHT22;26970;49.900;10.774;2022-12-29T08:39:28;7.00;99.90
39503;DHT22;26970;49.900;10.774;2022-12-29T08:41:54;7.00;99.90
39503;DHT22;26970;49.900;10.774;2022-12-29T08:44:20;7.10;99.90
39503;DHT22;26970;49.900;10.774;2022-12-29T08:46:45;7.10;99.90
39503;DHT22;26970;49.900;10.774;2022-12-29T08:49:11;7.20;99.90
39503;DHT22;26970;49.900;10.774;2022-12-29T08:51:36;7.20;99.90
39503;DHT22;26970;49.900;10.774;2022-12-29T08:54:02;7.20;99.90
39503;DHT22;26970;49.900;10.774;2022-12-29T08:56:28;7.20;99.90
39503;DHT22;26970;49.900;10.774;2022-12-29T08:58:54;7.20;99.90
39503;DHT22;26970;49.900;10.774;2022-12-29T09:01:20;7.20;99.90
39503;DHT22;26970;49.900;10.774;2022-12-29T09:03:46;7.30;99.90
39503;DHT22;26970;49.900;10.774;2022-12-29T09:06:13;7.30;99.90
39503;DHT22;26970;49.900;10.774;2022-12-29T09:08:39;7.30;99.90
39503;DHT22;26970;49.900;10.774;2022-12-29T09:11:10;7.30;99.90
39503;DHT22;26970;49.900;10.774;2022-12-29T09:13:35;7.40;99.90
39503;DHT22;26970;49.900;10.774;2022-12-29T09:16:01;7.30;99.90
39503;DHT22;26970;49.900;10.774;2022-12-29T09:18:27;7.30;99.90
39503;DHT22;26970;49.900;10.774;2022-12-29T09:20:57;7.40;99.90
39503;DHT22;26970;49.900;10.774;2022-12-29T09:23:24;7.40;99.90
39503;DHT22;26970;49.900;10.774;2022-12-29T09:25:49;7.40;99.90
39503;DHT22;26970;49.900;10.774;2022-12-29T09:28:15;7.50;99.90
39503;DHT22;26970;49.900;10.774;2022-12-29T09:30:41;7.50;99.90
39503;DHT22;26970;49.900;10.774;2022-12-29T09:33:07;7.60;99.90
39503;DHT22;26970;49.900;10.774;2022-12-29T09:35:32;7.60;99.90
39503;DHT22;26970;49.900;10.774;2022-12-29T09:37:58;7.60;99.90
39503;DHT22;26970;49.900;10.774;2022-12-29T09:40:31;7.60;99.90
39503;DHT22;26970;49.900;10.774;2022-12-29T09:46:57;7.70;99.90
39503;DHT22;26970;49.900;10.774;2022-12-29T09:49:20;7.70;99.90
39503;DHT22;26970;49.900;10.774;2022-12-29T09:51:53;7.70;99.90
39503;DHT22;26970;49.900;10.774;2022-12-29T09:54:46;7.70;99.90
39503;DHT22;26970;49.900;10.774;2022-12-29T09:58:20;7.70;99.90
39503;DHT22;26970;49.900;10.774;2022-12-29T10:00:16;7.70;99.90
39503;DHT22;26970;49.900;10.774;2022-12-29T10:02:46;7.70;99.90
39503;DHT22;26970;49.900;10.774;2022-12-29T10:08:15;7.80;99.90
39503;DHT22;26970;49.900;10.774;2022-12-29T10:16:20;7.70;99.90
39503;DHT22;26970;49.900;10.774;2022-12-29T10:19:09;7.70;99.90
39503;DHT22;26970;49.900;10.774;2022-12-29T10:21:44;7.70;99.90
39503;DHT22;26970;49.900;10.774;2022-12-29T10:24:14;7.60;99.90
39503;DHT22;26970;49.900;10.774;2022-12-29T10:26:43;7.70;99.90
39503;DHT22;26970;49.900;10.774;2022-12-29T10:31:57;7.60;99.90
39503;DHT22;26970;49.900;10.774;2022-12-29T10:34:38;7.60;99.90
39503;DHT22;26970;49.900;10.774;2022-12-29T10:37:34;7.60;99.90
39503;DHT22;26970;49.900;10.774;2022-12-29T10:42:57;7.50;99.90
39503;DHT22;26970;49.900;10.774;2022-12-29T10:45:28;7.50;99.90
39503;DHT22;26970;49.900;10.774;2022-12-29T10:50:20;7.50;99.90
39503;DHT22;26970;49.900;10.774;2022-12-29T10:52:46;7.60;99.90
39503;DHT22;26970;49.900;10.774;2022-12-29T10:55:17;7.70;99.90
39503;DHT22;26970;49.900;10.774;2022-12-29T10:57:45;7.70;99.90
39503;DHT22;26970;49.900;10.774;2022-12-29T11:00:21;7.80;99.90
39503;DHT22;26970;49.900;10.774;2022-12-29T11:06:08;7.80;99.90
39503;DHT22;26970;49.900;10.774;2022-12-29T11:08:38;7.90;99.90
39503;DHT22;26970;49.900;10.774;2022-12-29T11:11:08;7.90;99.90
39503;DHT22;26970;49.900;10.774;2022-12-29T11:13:46;7.90;99.90
39503;DHT22;26970;49.900;10.774;2022-12-29T11:16:12;8.00;99.90
39503;DHT22;26970;49.900;10.774;2022-12-29T11:18:39;8.10;99.90
39503;DHT22;26970;49.900;10.774;2022-12-29T11:21:07;8.10;99.90
39503;DHT22;26970;49.900;10.774;2022-12-29T11:24:00;8.20;99.90
39503;DHT22;26970;49.900;10.774;2022-12-29T11:26:27;8.30;99.90
39503;DHT22;26970;49.900;10.774;2022-12-29T11:29:26;8.40;99.90
39503;DHT22;26970;49.900;10.774;2022-12-29T11:31:57;8.50;99.90
39503;DHT22;26970;49.900;10.774;2022-12-29T11:34:33;8.70;99.90
39503;DHT22;26970;49.900;10.774;2022-12-29T11:42:20;8.90;99.90
39503;DHT22;26970;49.900;10.774;2022-12-29T11:44:49;8.90;99.90
39503;DHT22;26970;49.900;10.774;2022-12-29T11:47:30;8.90;99.90
39503;DHT22;26970;49.900;10.774;2022-12-29T11:50:02;8.90;99.90
39503;DHT22;26970;49.900;10.774;2022-12-29T11:52:32;9.00;99.90
39503;DHT22;26970;49.900;10.774;2022-12-29T11:55:01;9.10;99.90
39503;DHT22;26970;49.900;10.774;2022-12-29T11:57:28;9.20;99.90
39503;DHT22;26970;49.900;10.774;2022-12-29T11:59:56;9.20;99.90
39503;DHT22;26970;49.900;10.774;2022-12-29T12:05:20;9.30;99.90
39503;DHT22;26970;49.900;10.774;2022-12-29T12:07:50;9.30;99.90
39503;DHT22;26970;49.900;10.774;2022-12-29T12:10:19;9.40;99.90
39503;DHT22;26970;49.900;10.774;2022-12-29T12:15:39;9.50;99.90
39503;DHT22;26970;49.900;10.774;2022-12-29T12:18:30;9.50;99.90
39503;DHT22;26970;49.900;10.774;2022-12-29T12:24:22;9.60;99.90
39503;DHT22;26970;49.900;10.774;2022-12-29T12:26:59;9.60;99.90
39503;DHT22;26970;49.900;10.774;2022-12-29T12:32:15;9.60;99.90
39503;DHT22;26970;49.900;10.774;2022-12-29T12:34:43;9.60;99.90
39503;DHT22;26970;49.900;10.774;2022-12-29T12:37:28;9.70;99.90
39503;DHT22;26970;49.900;10.774;2022-12-29T12:42:59;9.90;99.90
39503;DHT22;26970;49.900;10.774;2022-12-29T12:54:43;10.70;99.90
39503;DHT22;26970;49.900;10.774;2022-12-29T12:59:49;10.80;99.90
39503;DHT22;26970;49.900;10.774;2022-12-29T13:25:04;10.80;99.90
39503;DHT22;26970;49.900;10.774;2022-12-29T13:30:04;10.80;99.90
39503;DHT22;26970;49.900;10.774;2022-12-29T13:32:51;10.80;99.90
39503;DHT22;26970;49.900;10.774;2022-12-29T13:35:41;10.80;99.90
39503;DHT22;26970;49.900;10.774;2022-12-29T13:38:26;10.80;99.90
39503;DHT22;26970;49.900;10.774;2022-12-29T13:40:56;10.80;99.90
39503;DHT22;26970;49.900;10.774;2022-12-29T13:43:25;10.80;99.90
39503;DHT22;26970;49.900;10.774;2022-12-29T13:46:01;10.70;99.90
39503;DHT22;26970;49.900;10.774;2022-12-29T13:48:46;10.70;99.90
39503;DHT22;26970;49.900;10.774;2022-12-29T13:51:15;10.60;99.90
39503;DHT22;26970;49.900;10.774;2022-12-29T13:56:34;10.60;99.90
39503;DHT22;26970;49.900;10.774;2022-12-29T13:59:06;10.60;99.90
39503;DHT22;26970;49.900;10.774;2022-12-29T14:01:58;10.60;99.90
39503;DHT22;26970;49.900;10.774;2022-12-29T14:04:27;10.50;99.90
39503;DHT22;26970;49.900;10.774;2022-12-29T14:09:41;10.30;99.90
39503;DHT22;26970;49.900;10.774;2022-12-29T14:12:31;10.20;99.90
39503;DHT22;26970;49.900;10.774;2022-12-29T14:15:06;10.20;99.90
39503;DHT22;26970;49.900;10.774;2022-12-29T14:17:40;10.20;99.90
39503;DHT22;26970;49.900;10.774;2022-12-29T14:20:22;10.20;99.90
39503;DHT22;26970;49.900;10.774;2022-12-29T14:28:26;10.30;99.90
39503;DHT22;26970;49.900;10.774;2022-12-29T14:30:58;10.20;99.90
39503;DHT22;26970;49.900;10.774;2022-12-29T14:33:26;10.30;99.90
39503;DHT22;26970;49.900;10.774;2022-12-29T14:35:52;10.30;99.90
39503;DHT22;26970;49.900;10.774;2022-12-29T14:38:21;10.30;99.90
39503;DHT22;26970;49.900;10.774;2022-12-29T14:40:48;10.30;99.90
39503;DHT22;26970;49.900;10.774;2022-12-29T14:43:26;10.30;99.90
39503;DHT22;26970;49.900;10.774;2022-12-29T14:45:58;10.20;99.90
39503;DHT22;26970;49.900;10.774;2022-12-29T14:48:40;10.30;99.90
39503;DHT22;26970;49.900;10.774;2022-12-29T14:51:18;10.30;99.90
39503;DHT22;26970;49.900;10.774;2022-12-29T14:53:51;10.20;99.90
39503;DHT22;26970;49.900;10.774;2022-12-29T14:56:19;10.10;99.90
39503;DHT22;26970;49.900;10.774;2022-12-29T14:58:57;10.00;99.90
39503;DHT22;26970;49.900;10.774;2022-12-29T15:04:04;9.90;99.90
39503;DHT22;26970;49.900;10.774;2022-12-29T15:06:30;9.80;99.90
39503;DHT22;26970;49.900;10.774;2022-12-29T15:09:29;9.80;99.90
39503;DHT22;26970;49.900;10.774;2022-12-29T15:12:44;9.80;99.90
39503;DHT22;26970;49.900;10.774;2022-12-29T15:15:28;9.70;99.90
39503;DHT22;26970;49.900;10.774;2022-12-29T15:17:55;9.70;99.90
39503;DHT22;26970;49.900;10.774;2022-12-29T15:20:27;9.70;99.90
39503;DHT22;26970;49.900;10.774;2022-12-29T15:22:56;9.60;99.90
39503;DHT22;26970;49.900;10.774;2022-12-29T15:25:23;9.60;99.90
39503;DHT22;26970;49.900;10.774;2022-12-29T15:27:52;9.70;99.90
39503;DHT22;26970;49.900;10.774;2022-12-29T15:30:18;9.70;99.90
39503;DHT22;26970;49.900;10.774;2022-12-29T15:32:46;9.60;99.90
39503;DHT22;26970;49.900;10.774;2022-12-29T15:35:37;9.60;99.90
39503;DHT22;26970;49.900;10.774;2022-12-29T15:38:14;9.50;99.90
39503;DHT22;26970;49.900;10.774;2022-12-29T15:40:43;9.50;99.90
39503;DHT22;26970;49.900;10.774;2022-12-29T15:43:32;9.60;99.90
39503;DHT22;26970;49.900;10.774;2022-12-29T15:46:04;9.60;99.90
39503;DHT22;26970;49.900;10.774;2022-12-29T15:48:31;9.60;99.90
39503;DHT22;26970;49.900;10.774;2022-12-29T15:50:58;9.70;99.90
39503;DHT22;26970;49.900;10.774;2022-12-29T15:53:30;9.70;99.90
39503;DHT22;26970;49.900;10.774;2022-12-29T15:56:00;9.70;99.90
39503;DHT22;26970;49.900;10.774;2022-12-29T15:58:28;9.70;99.90
39503;DHT22;26970;49.900;10.774;2022-12-29T16:01:00;9.70;99.90
39503;DHT22;26970;49.900;10.774;2022-12-29T16:03:28;9.70;99.90
39503;DHT22;26970;49.900;10.774;2022-12-29T16:06:06;9.70;99.90
39503;DHT22;26970;49.900;10.774;2022-12-29T16:08:35;9.70;99.90
39503;DHT22;26970;49.900;10.774;2022-12-29T16:11:25;9.60;99.90
39503;DHT22;26970;49.900;10.774;2022-12-29T16:13:53;9.50;99.90
39503;DHT22;26970;49.900;10.774;2022-12-29T16:16:30;9.30;99.90
39503;DHT22;26970;49.900;10.774;2022-12-29T16:18:57;9.20;99.90
39503;DHT22;26970;49.900;10.774;2022-12-29T16:21:28;9.10;99.90
39503;DHT22;26970;49.900;10.774;2022-12-29T16:23:58;9.00;99.90
39503;DHT22;26970;49.900;10.774;2022-12-29T16:26:25;8.80;99.90
39503;DHT22;26970;49.900;10.774;2022-12-29T16:28:55;8.80;99.90
39503;DHT22;26970;49.900;10.774;2022-12-29T16:31:24;8.70;99.90
39503;DHT22;26970;49.900;10.774;2022-12-29T16:33:54;8.60;99.90
39503;DHT22;26970;49.900;10.774;2022-12-29T16:36:34;8.50;99.90
39503;DHT22;26970;49.900;10.774;2022-12-29T16:39:25;8.40;99.90
39503;DHT22;26970;49.900;10.774;2022-12-29T16:41:52;8.40;99.90
39503;DHT22;26970;49.900;10.774;2022-12-29T16:44:28;8.30;99.90
39503;DHT22;26970;49.900;10.774;2022-12-29T16:47:01;8.30;99.90
39503;DHT22;26970;49.900;10.774;2022-12-29T16:49:28;8.20;99.90
39503;DHT22;26970;49.900;10.774;2022-12-29T16:51:54;8.10;99.90
39503;DHT22;26970;49.900;10.774;2022-12-29T16:54:24;8.10;99.90
39503;DHT22;26970;49.900;10.774;2022-12-29T16:56:50;8.10;99.90
39503;DHT22;26970;49.900;10.774;2022-12-29T16:59:25;8.10;99.90
39503;DHT22;26970;49.900;10.774;2022-12-29T17:01:54;8.00;99.90
39503;DHT22;26970;49.900;10.774;2022-12-29T17:04:20;8.00;99.90
39503;DHT22;26970;49.900;10.774;2022-12-29T17:06:46;7.90;99.90
39503;DHT22;26970;49.900;10.774;2022-12-29T17:11:51;7.80;99.90
39503;DHT22;26970;49.900;10.774;2022-12-29T17:14:31;7.80;99.90
39503;DHT22;26970;49.900;10.774;2022-12-29T17:16:59;7.80;99.90
39503;DHT22;26970;49.900;10.774;2022-12-29T17:19:33;7.80;99.90
39503;DHT22;26970;49.900;10.774;2022-12-29T17:21:59;7.70;99.90
39503;DHT22;26970;49.900;10.774;2022-12-29T17:24:25;7.70;99.90
39503;DHT22;26970;49.900;10.774;2022-12-29T17:26:59;7.70;99.90
39503;DHT22;26970;49.900;10.774;2022-12-29T17:29:35;7.70;99.90
39503;DHT22;26970;49.900;10.774;2022-12-29T17:32:03;7.70;99.90
39503;DHT22;26970;49.900;10.774;2022-12-29T17:34:30;7.60;99.90
39503;DHT22;26970;49.900;10.774;2022-12-29T17:36:56;7.50;99.90
39503;DHT22;26970;49.900;10.774;2022-12-29T17:39:21;7.50;99.90
39503;DHT22;26970;49.900;10.774;2022-12-29T17:41:47;7.40;99.90
39503;DHT22;26970;49.900;10.774;2022-12-29T17:44:15;7.40;99.90
39503;DHT22;26970;49.900;10.774;2022-12-29T17:46:43;7.30;99.90
39503;DHT22;26970;49.900;10.774;2022-12-29T17:49:14;7.30;99.90